createdAt,value
2018-08-18T00:02:16.332Z,9.30
2018-08-18T00:04:43.578Z,7.87
2018-08-18T00:07:10.696Z,10.43
2018-08-18T00:09:37.852Z,8.83
2018-08-18T00:12:04.997Z,11.07
2018-08-18T00:14:32.157Z,9.63
2018-08-18T00:16:59.304Z,9.97
2018-08-18T00:19:26.446Z,11.83
2018-08-18T00:21:53.585Z,8.53
2018-08-18T00:24:20.756Z,8.93
2018-08-18T00:26:47.888Z,11.80
2018-08-18T00:29:15.020Z,8.80
2018-08-18T00:31:43.501Z,8.93
2018-08-18T00:34:10.663Z,8.47
2018-08-18T00:36:37.789Z,9.47
2018-08-18T00:39:09.216Z,8.67
2018-08-18T00:41:36.793Z,9.23
2018-08-18T00:44:04.072Z,9.17
2018-08-18T00:46:32.145Z,9.37
2018-08-18T00:48:59.367Z,8.60
2018-08-18T00:51:34.686Z,9.03
2018-08-18T00:54:03.120Z,8.83
2018-08-18T00:56:30.310Z,9.23
2018-08-18T00:58:57.428Z,9.43
2018-08-18T01:01:24.553Z,9.50
2018-08-18T01:03:54.992Z,8.00
2018-08-18T01:06:25.536Z,7.10
2018-08-18T01:08:54.180Z,8.57
2018-08-18T01:11:21.363Z,7.97
2018-08-18T01:13:48.936Z,7.97
2018-08-18T01:16:15.880Z,6.40
2018-08-18T01:18:42.982Z,6.97
2018-08-18T01:21:10.111Z,6.50
2018-08-18T01:23:37.221Z,10.03
2018-08-18T01:26:04.757Z,6.77
2018-08-18T01:28:31.868Z,9.40
2018-08-18T01:31:10.407Z,8.67
2018-08-18T01:33:38.214Z,8.97
2018-08-18T01:36:05.664Z,7.20
2018-08-18T01:38:34.364Z,7.70
2018-08-18T01:41:13.185Z,7.60
2018-08-18T01:43:41.867Z,7.83
2018-08-18T01:46:09.021Z,7.17
2018-08-18T01:48:36.212Z,6.37
2018-08-18T01:51:13.004Z,7.70
2018-08-18T01:53:40.275Z,9.17
2018-08-18T01:56:07.405Z,7.10
2018-08-18T01:58:34.497Z,6.53
2018-08-18T02:01:01.630Z,7.70
2018-08-18T02:03:28.731Z,10.97
2018-08-18T02:05:55.852Z,7.00
2018-08-18T02:08:22.953Z,6.37
2018-08-18T02:10:50.081Z,7.87
2018-08-18T02:13:17.229Z,8.20
2018-08-18T02:15:44.324Z,7.33
2018-08-18T02:18:11.450Z,8.80
2018-08-18T02:20:38.581Z,6.90
2018-08-18T02:23:05.705Z,7.20
2018-08-18T02:25:33.612Z,9.60
2018-08-18T02:28:00.723Z,7.77
2018-08-18T02:30:27.869Z,6.60
2018-08-18T02:32:55.017Z,8.43
2018-08-18T02:35:22.201Z,5.83
2018-08-18T02:37:49.320Z,6.50
2018-08-18T02:40:17.331Z,7.67
2018-08-18T02:42:44.504Z,6.57
2018-08-18T02:45:12.311Z,6.27
2018-08-18T02:47:39.457Z,7.70
2018-08-18T02:50:07.480Z,7.20
2018-08-18T02:52:35.075Z,7.27
2018-08-18T02:55:04.423Z,7.67
2018-08-18T02:57:33.688Z,9.87
2018-08-18T03:00:01.908Z,9.53
2018-08-18T03:02:29.070Z,7.17
2018-08-18T03:04:56.171Z,10.10
2018-08-18T03:07:23.726Z,7.00
2018-08-18T03:09:50.925Z,9.50
2018-08-18T03:12:18.077Z,6.73
2018-08-18T03:14:45.208Z,7.17
2018-08-18T03:17:12.845Z,7.17
2018-08-18T03:19:41.085Z,7.60
2018-08-18T03:22:08.228Z,7.70
2018-08-18T03:24:35.340Z,8.70
2018-08-18T03:27:02.461Z,8.33
2018-08-18T03:29:30.869Z,8.97
2018-08-18T03:31:57.989Z,7.77
2018-08-18T03:34:25.088Z,10.07
2018-08-18T03:36:55.264Z,9.47
2018-08-18T03:39:29.165Z,6.97
2018-08-18T03:41:57.761Z,9.17
2018-08-18T03:44:24.869Z,8.97
2018-08-18T03:46:52.046Z,11.73
2018-08-18T03:49:19.522Z,10.27
2018-08-18T03:51:50.668Z,11.27
2018-08-18T03:54:17.851Z,7.27
2018-08-18T03:56:45.372Z,10.00
2018-08-18T03:59:12.508Z,7.43
2018-08-18T04:02:02.119Z,8.17
2018-08-18T04:04:30.479Z,10.67
2018-08-18T04:06:58.750Z,8.83
2018-08-18T04:09:27.036Z,8.63
2018-08-18T04:11:55.724Z,9.03
2018-08-18T04:14:28.492Z,9.47
2018-08-18T04:16:56.112Z,8.77
2018-08-18T04:19:23.204Z,9.83
2018-08-18T04:21:51.557Z,10.13
2018-08-18T04:24:18.744Z,9.10
2018-08-18T04:26:47.884Z,9.53
2018-08-18T04:29:15.092Z,10.43
2018-08-18T04:31:42.212Z,9.37
2018-08-18T04:34:09.320Z,8.23
2018-08-18T04:36:36.418Z,8.40
2018-08-18T04:39:09.812Z,8.83
2018-08-18T04:41:37.001Z,8.47
2018-08-18T04:44:04.233Z,10.47
2018-08-18T04:46:31.369Z,9.80
2018-08-18T04:48:58.494Z,12.33
2018-08-18T04:51:25.597Z,10.93
2018-08-18T04:53:52.695Z,10.47
2018-08-18T04:56:19.820Z,9.03
2018-08-18T04:58:46.923Z,11.43
2018-08-18T05:01:14.072Z,8.37
2018-08-18T05:03:57.959Z,10.97
2018-08-18T05:06:26.025Z,10.60
2018-08-18T05:08:53.570Z,8.97
2018-08-18T05:11:20.662Z,9.73
2018-08-18T05:13:47.776Z,9.80
2018-08-18T05:16:15.216Z,8.97
2018-08-18T05:18:42.328Z,9.23
2018-08-18T05:21:09.412Z,7.83
2018-08-18T05:23:36.568Z,9.57
2018-08-18T05:26:03.693Z,12.40
2018-08-18T05:28:31.193Z,9.90
2018-08-18T05:30:58.304Z,11.83
2018-08-18T05:33:25.412Z,12.23
2018-08-18T05:35:52.538Z,6.57
2018-08-18T05:38:19.649Z,11.67
2018-08-18T05:40:46.770Z,8.93
2018-08-18T05:43:13.860Z,10.33
2018-08-18T05:45:40.965Z,13.87
2018-08-18T05:48:08.232Z,9.73
2018-08-18T05:50:35.367Z,10.63
2018-08-18T05:53:24.092Z,8.57
2018-08-18T05:55:51.250Z,10.10
2018-08-18T05:58:18.368Z,8.47
2018-08-18T06:00:45.715Z,10.37
2018-08-18T06:03:16.044Z,10.87
2018-08-18T06:05:43.188Z,9.37
2018-08-18T06:08:10.304Z,10.73
2018-08-18T06:10:37.448Z,12.57
2018-08-18T06:13:10.172Z,13.07
2018-08-18T06:15:37.309Z,11.53
2018-08-18T06:18:04.625Z,9.73
2018-08-18T06:20:31.740Z,11.23
2018-08-18T06:22:58.837Z,11.77
2018-08-18T06:25:25.944Z,9.43
2018-08-18T06:27:53.072Z,11.87
2018-08-18T06:30:20.189Z,11.97
2018-08-18T06:32:47.308Z,16.70
2018-08-18T06:35:14.464Z,10.10
2018-08-18T06:37:46.168Z,12.50
2018-08-18T06:40:13.308Z,12.13
2018-08-18T06:42:42.648Z,12.97
2018-08-18T06:45:11.985Z,14.17
2018-08-18T06:47:39.368Z,15.30
2018-08-18T06:50:08.507Z,11.87
2018-08-18T06:52:35.648Z,15.67
2018-08-18T06:55:03.079Z,14.00
2018-08-18T06:57:39.085Z,15.13
2018-08-18T07:00:09.209Z,13.97
2018-08-18T07:02:36.400Z,12.47
2018-08-18T07:05:04.602Z,13.33
2018-08-18T07:07:32.197Z,14.53
2018-08-18T07:10:14.233Z,12.27
2018-08-18T07:12:42.696Z,15.70
2018-08-18T07:15:15.669Z,13.13
2018-08-18T07:17:42.784Z,15.17
2018-08-18T07:20:09.949Z,13.97
2018-08-18T07:22:37.068Z,16.20
2018-08-18T07:25:04.336Z,17.77
2018-08-18T07:27:31.461Z,15.90
2018-08-18T07:29:58.585Z,12.83
2018-08-18T07:32:25.710Z,13.97
2018-08-18T07:34:52.813Z,13.73
2018-08-18T07:37:19.981Z,11.30
2018-08-18T07:39:47.060Z,17.90
2018-08-18T07:42:14.157Z,13.10
2018-08-18T07:44:41.261Z,12.67
2018-08-18T07:47:08.373Z,11.17
2018-08-18T07:49:35.511Z,16.17
2018-08-18T07:52:02.636Z,13.30
2018-08-18T07:54:29.733Z,13.90
2018-08-18T07:56:56.831Z,13.20
2018-08-18T07:59:23.950Z,14.87
2018-08-18T08:01:51.144Z,13.37
2018-08-18T08:04:18.273Z,13.53
2018-08-18T08:06:45.409Z,9.53
2018-08-18T08:09:12.509Z,11.70
2018-08-18T08:11:40.221Z,13.93
2018-08-18T08:14:07.401Z,5.67
2018-08-18T08:16:34.516Z,8.60
2018-08-18T08:19:01.634Z,6.93
2018-08-18T08:21:28.793Z,8.10
2018-08-18T08:23:55.958Z,8.40
2018-08-18T08:26:23.140Z,7.90
2018-08-18T08:28:50.312Z,8.83
2018-08-18T08:31:17.421Z,8.67
2018-08-18T08:33:44.561Z,6.03
2018-08-18T08:36:13.815Z,10.30
2018-08-18T08:38:49.636Z,6.00
2018-08-18T08:41:16.761Z,5.27
2018-08-18T08:43:43.888Z,6.07
2018-08-18T08:46:11.010Z,6.33
2018-08-18T08:48:38.128Z,8.23
2018-08-18T08:51:05.253Z,4.10
2018-08-18T08:53:32.376Z,6.70
2018-08-18T08:55:59.481Z,7.13
2018-08-18T08:58:26.616Z,5.90
2018-08-18T09:00:53.742Z,7.33
2018-08-18T09:03:20.886Z,7.40
2018-08-18T09:05:47.984Z,5.87
2018-08-18T09:08:15.110Z,8.23
2018-08-18T09:10:42.614Z,5.23
2018-08-18T09:13:09.828Z,4.27
2018-08-18T09:15:36.925Z,4.43
2018-08-18T09:18:04.730Z,6.73
2018-08-18T09:20:36.457Z,7.37
2018-08-18T09:23:03.603Z,6.03
2018-08-18T09:25:31.768Z,5.13
2018-08-18T09:28:01.277Z,5.43
2018-08-18T09:30:29.731Z,5.40
2018-08-18T09:32:59.582Z,4.93
2018-08-18T09:35:26.696Z,5.77
2018-08-18T09:37:57.631Z,4.63
2018-08-18T09:40:25.176Z,5.77
2018-08-18T09:42:52.301Z,5.43
2018-08-18T09:45:19.443Z,6.37
2018-08-18T09:47:46.661Z,6.77
2018-08-18T09:50:13.841Z,6.03
2018-08-18T09:52:41.001Z,5.40
2018-08-18T09:55:08.192Z,8.57
2018-08-18T09:57:35.344Z,7.10
2018-08-18T10:00:02.639Z,5.67
2018-08-18T10:02:29.801Z,6.17
2018-08-18T10:04:56.920Z,8.10
2018-08-18T10:07:24.093Z,15.97
2018-08-18T10:09:51.216Z,5.17
2018-08-18T10:12:18.390Z,6.53
2018-08-18T10:14:45.520Z,8.40
2018-08-18T10:17:12.668Z,7.90
2018-08-18T10:19:39.785Z,6.03
2018-08-18T10:22:06.929Z,7.57
2018-08-18T10:24:34.046Z,7.27
2018-08-18T10:27:04.536Z,6.33
2018-08-18T10:29:31.696Z,7.30
2018-08-18T10:31:59.453Z,8.13
2018-08-18T10:34:29.788Z,7.90
2018-08-18T10:36:58.325Z,7.30
2018-08-18T10:39:25.469Z,10.60
2018-08-18T10:42:05.284Z,9.50
2018-08-18T10:44:32.528Z,8.23
2018-08-18T10:47:09.396Z,8.90
2018-08-18T10:49:48.058Z,6.27
2018-08-18T10:52:27.802Z,12.93
2018-08-18T10:54:55.518Z,7.30
2018-08-18T10:57:34.068Z,8.20
2018-08-18T11:00:06.529Z,10.07
2018-08-18T11:02:34.900Z,11.33
2018-08-18T11:05:02.040Z,9.97
2018-08-18T11:07:29.164Z,12.10
2018-08-18T11:09:56.320Z,6.63
2018-08-18T11:12:23.502Z,8.90
2018-08-18T11:14:56.208Z,10.43
2018-08-18T11:17:23.873Z,6.40
2018-08-18T11:19:50.992Z,9.43
2018-08-18T11:23:21.132Z,5.20
2018-08-18T11:25:53.105Z,10.13
2018-08-18T11:28:21.089Z,8.63
2018-08-18T11:30:50.496Z,6.67
2018-08-18T11:33:35.539Z,9.03
2018-08-18T11:36:03.387Z,7.50
2018-08-18T11:38:31.128Z,8.93
2018-08-18T11:40:58.253Z,8.97
2018-08-18T11:43:25.396Z,9.10
2018-08-18T11:45:52.521Z,7.33
2018-08-18T11:48:20.894Z,8.93
2018-08-18T11:50:48.765Z,7.50
2018-08-18T11:53:15.896Z,12.20
2018-08-18T11:55:43.052Z,9.20
2018-08-18T11:58:11.781Z,7.83
2018-08-18T12:00:58.924Z,8.23
2018-08-18T12:03:30.660Z,7.57
2018-08-18T12:05:58.889Z,7.50
2018-08-18T12:08:28.200Z,9.37
2018-08-18T12:10:56.993Z,9.07
2018-08-18T12:13:30.284Z,9.40
2018-08-18T12:16:08.458Z,10.53
2018-08-18T12:18:37.336Z,9.30
2018-08-18T12:21:04.542Z,7.00
2018-08-18T12:23:33.930Z,9.00
2018-08-18T12:26:07.048Z,8.83
2018-08-18T12:28:40.008Z,8.03
2018-08-18T12:31:09.113Z,8.17
2018-08-18T12:33:36.237Z,8.40
2018-08-18T12:36:03.608Z,9.03
2018-08-18T12:38:31.281Z,10.10
2018-08-18T12:40:58.389Z,6.97
2018-08-18T12:43:31.190Z,10.50
2018-08-18T12:45:58.345Z,7.47
2018-08-18T12:48:25.497Z,6.67
2018-08-18T12:50:52.609Z,11.43
2018-08-18T12:53:19.785Z,9.97
2018-08-18T12:55:52.476Z,11.50
2018-08-18T12:58:19.691Z,11.07
2018-08-18T13:00:46.771Z,10.43
2018-08-18T13:03:13.887Z,8.40
2018-08-18T13:05:41.060Z,8.63
2018-08-18T13:08:08.188Z,11.13
2018-08-18T13:10:35.310Z,10.73
2018-08-18T13:13:02.440Z,9.57
2018-08-18T13:15:29.552Z,8.17
2018-08-18T13:17:56.677Z,6.60
2018-08-18T13:20:25.038Z,9.83
2018-08-18T13:22:52.217Z,9.97
2018-08-18T13:25:19.422Z,9.93
2018-08-18T13:27:51.545Z,8.00
2018-08-18T13:30:19.570Z,8.33
2018-08-18T13:32:47.229Z,9.63
2018-08-18T13:35:14.408Z,7.13
2018-08-18T13:37:41.517Z,6.00
2018-08-18T13:40:10.837Z,9.87
2018-08-18T13:42:38.755Z,7.37
2018-08-18T13:45:05.904Z,9.53
2018-08-18T13:47:33.013Z,6.90
2018-08-18T13:50:16.959Z,9.37
2018-08-18T13:52:47.905Z,9.10
2018-08-18T13:55:15.061Z,6.23
2018-08-18T13:57:42.229Z,7.33
2018-08-18T14:00:11.873Z,9.27
2018-08-18T14:02:39.117Z,7.70
2018-08-18T14:05:09.873Z,9.57
2018-08-18T14:07:50.990Z,11.07
2018-08-18T14:10:18.689Z,12.67
2018-08-18T14:12:45.887Z,9.40
2018-08-18T14:15:13.008Z,7.73
2018-08-18T14:17:40.136Z,6.23
2018-08-18T14:20:07.284Z,8.90
2018-08-18T14:22:34.429Z,8.67
2018-08-18T14:25:01.557Z,8.67
2018-08-18T14:27:28.673Z,7.20
2018-08-18T14:29:55.777Z,8.53
2018-08-18T14:32:27.613Z,9.33
2018-08-18T14:35:04.685Z,6.23
2018-08-18T14:37:31.832Z,8.10
2018-08-18T14:39:59.013Z,9.47
2018-08-18T14:42:26.121Z,8.50
2018-08-18T14:44:54.684Z,9.00
2018-08-18T14:47:21.789Z,8.87
2018-08-18T14:49:50.557Z,7.70
2018-08-18T14:52:17.673Z,8.90
2018-08-18T14:54:44.795Z,8.77
2018-08-18T14:57:11.898Z,12.47
2018-08-18T14:59:39.032Z,9.00
2018-08-18T15:02:06.907Z,8.00
2018-08-18T15:04:34.596Z,8.27
2018-08-18T15:07:01.829Z,7.17
2018-08-18T15:09:40.402Z,7.27
2018-08-18T15:12:07.525Z,9.83
2018-08-18T15:14:34.677Z,6.83
2018-08-18T15:17:01.791Z,8.57
2018-08-18T15:19:28.929Z,8.60
2018-08-18T15:21:56.072Z,10.10
2018-08-18T15:24:24.028Z,11.17
2018-08-18T15:26:51.529Z,8.67
2018-08-18T15:29:18.678Z,8.23
2018-08-18T15:31:46.861Z,7.40
2018-08-18T15:34:14.005Z,8.10
2018-08-18T15:36:41.110Z,9.03
2018-08-18T15:39:08.231Z,10.23
2018-08-18T15:41:35.516Z,8.57
2018-08-18T15:44:05.234Z,8.47
2018-08-18T15:46:32.352Z,8.53
2018-08-18T15:48:59.484Z,10.20
2018-08-18T15:51:26.585Z,7.60
2018-08-18T15:53:55.682Z,9.47
2018-08-18T15:56:23.682Z,7.70
2018-08-18T15:58:51.475Z,8.13
2018-08-18T16:01:20.721Z,7.83
2018-08-18T16:03:47.841Z,11.10
2018-08-18T16:06:14.957Z,9.13
2018-08-18T16:08:42.065Z,7.43
2018-08-18T16:11:09.200Z,8.30
2018-08-18T16:13:36.446Z,9.90
2018-08-18T16:16:03.570Z,9.73
2018-08-18T16:18:31.089Z,7.27
2018-08-18T16:21:02.260Z,10.30
2018-08-18T16:23:29.379Z,10.43
2018-08-18T16:25:56.512Z,9.57
2018-08-18T16:28:33.974Z,7.70
2018-08-18T16:31:01.085Z,9.27
2018-08-18T16:33:28.192Z,10.13
2018-08-18T16:35:55.284Z,9.23
2018-08-18T16:38:22.396Z,11.43
2018-08-18T16:40:49.485Z,8.10
2018-08-18T16:43:16.601Z,8.00
2018-08-18T16:45:43.729Z,11.07
2018-08-18T16:48:12.044Z,10.57
2018-08-18T16:50:40.040Z,10.57
2018-08-18T16:53:08.514Z,7.87
2018-08-18T16:55:37.012Z,8.47
2018-08-18T16:58:04.169Z,8.90
2018-08-18T17:00:31.721Z,8.67
2018-08-18T17:02:59.074Z,11.20
2018-08-18T17:05:26.338Z,9.87
2018-08-18T17:07:53.463Z,10.10
2018-08-18T17:10:20.588Z,10.60
2018-08-18T17:12:47.748Z,10.27
2018-08-18T17:15:14.863Z,11.43
2018-08-18T17:17:41.986Z,7.93
2018-08-18T17:20:09.368Z,7.83
2018-08-18T17:22:36.517Z,9.20
2018-08-18T17:25:04.188Z,10.37
2018-08-18T17:27:31.281Z,6.93
2018-08-18T17:30:00.544Z,10.07
2018-08-18T17:32:27.628Z,9.20
2018-08-18T17:34:54.743Z,8.77
2018-08-18T17:37:21.872Z,10.33
2018-08-18T17:39:48.992Z,8.57
2018-08-18T17:42:16.124Z,10.83
2018-08-18T17:44:43.263Z,11.80
2018-08-18T17:47:10.755Z,10.77
2018-08-18T17:49:46.672Z,7.80
2018-08-18T17:52:13.812Z,11.67
2018-08-18T17:54:41.372Z,13.27
2018-08-18T17:57:08.620Z,9.40
2018-08-18T17:59:36.473Z,9.57
2018-08-18T18:02:12.122Z,10.13
2018-08-18T18:04:39.251Z,9.90
2018-08-18T18:07:07.412Z,7.87
2018-08-18T18:09:34.640Z,10.63
2018-08-18T18:12:35.463Z,10.03
2018-08-18T18:15:40.473Z,10.37
2018-08-18T18:18:09.405Z,11.47
2018-08-18T18:20:36.532Z,10.63
2018-08-18T18:23:05.160Z,10.00
2018-08-18T18:25:32.284Z,9.30
2018-08-18T18:27:59.756Z,7.83
2018-08-18T18:30:27.892Z,10.60
2018-08-18T18:32:55.516Z,11.30
2018-08-18T18:35:23.387Z,11.00
2018-08-18T18:37:50.848Z,8.23
2018-08-18T18:40:18.000Z,12.37
2018-08-18T18:42:45.152Z,12.77
2018-08-18T18:45:12.324Z,7.70
2018-08-18T18:47:42.601Z,9.23
2018-08-18T18:50:09.749Z,9.93
2018-08-18T18:52:36.871Z,11.23
2018-08-18T18:55:04.590Z,6.80
2018-08-18T18:57:31.704Z,8.57
2018-08-18T18:59:59.868Z,9.63
2018-08-18T19:02:34.133Z,6.97
2018-08-18T19:05:07.863Z,9.57
2018-08-18T19:07:34.982Z,11.60
2018-08-18T19:10:06.698Z,10.70
2018-08-18T19:12:33.842Z,7.93
2018-08-18T19:15:00.972Z,10.00
2018-08-18T19:17:28.069Z,8.37
2018-08-18T19:20:10.616Z,9.57
2018-08-18T19:22:37.864Z,8.50
2018-08-18T19:25:04.969Z,8.57
2018-08-18T19:27:32.153Z,9.23
2018-08-18T19:29:59.276Z,10.20
2018-08-18T19:32:26.405Z,10.93
2018-08-18T19:34:53.528Z,8.20
2018-08-18T19:37:20.668Z,9.03
2018-08-18T19:39:48.116Z,11.13
2018-08-18T19:42:15.904Z,11.60
2018-08-18T19:44:44.357Z,11.77
2018-08-18T19:47:11.548Z,11.67
2018-08-18T19:49:41.345Z,13.43
2018-08-18T19:52:16.397Z,12.40
2018-08-18T19:54:45.654Z,13.97
2018-08-18T19:57:22.698Z,12.17
2018-08-18T19:59:50.458Z,10.70
2018-08-18T20:02:17.905Z,9.70
2018-08-18T20:04:45.046Z,10.47
2018-08-18T20:07:12.169Z,12.83
2018-08-18T20:09:39.277Z,10.47
2018-08-18T20:12:06.376Z,16.20
2018-08-18T20:14:33.472Z,12.80
2018-08-18T20:17:00.627Z,12.03
2018-08-18T20:19:27.720Z,11.27
2018-08-18T20:21:54.837Z,13.17
2018-08-18T20:24:21.946Z,10.57
2018-08-18T20:26:49.036Z,9.67
2018-08-18T20:29:16.917Z,13.70
2018-08-18T20:31:55.584Z,11.27
2018-08-18T20:34:24.212Z,10.90
2018-08-18T20:36:51.317Z,11.07
2018-08-18T20:39:18.421Z,8.77
2018-08-18T20:41:45.528Z,10.70
2018-08-18T20:44:12.636Z,12.17
2018-08-18T20:46:39.744Z,10.47
2018-08-18T20:49:06.855Z,12.47
2018-08-18T20:51:33.972Z,10.57
2018-08-18T20:54:01.264Z,11.60
2018-08-18T20:56:28.420Z,12.47
2018-08-18T20:58:55.552Z,9.87
2018-08-18T21:01:22.669Z,10.20
2018-08-18T21:03:50.457Z,10.90
2018-08-18T21:06:18.524Z,13.43
2018-08-18T21:08:45.682Z,8.73
2018-08-18T21:11:13.232Z,11.27
2018-08-18T21:13:40.337Z,15.97
2018-08-18T21:16:07.745Z,10.47
2018-08-18T21:18:34.874Z,10.47
2018-08-18T21:21:14.232Z,11.07
2018-08-18T21:23:41.392Z,13.20
2018-08-18T21:26:08.494Z,13.33
2018-08-18T21:28:35.599Z,10.20
2018-08-18T21:31:02.753Z,12.10
2018-08-18T21:33:29.984Z,9.90
2018-08-18T21:35:57.092Z,11.67
2018-08-18T21:38:24.244Z,10.67
2018-08-18T21:40:51.352Z,12.60
2018-08-18T21:43:30.256Z,12.87
2018-08-18T21:45:57.370Z,10.80
2018-08-18T21:48:36.095Z,12.67
2018-08-18T21:51:03.212Z,14.70
2018-08-18T21:53:30.300Z,14.07
2018-08-18T21:55:58.476Z,14.17
2018-08-18T21:58:25.573Z,10.93
2018-08-18T22:00:57.446Z,12.90
2018-08-18T22:03:24.620Z,14.97
2018-08-18T22:05:51.681Z,13.83
2018-08-18T22:08:18.804Z,10.63
2018-08-18T22:10:51.459Z,11.40
2018-08-18T22:13:18.533Z,11.40
2018-08-18T22:15:45.640Z,12.40
2018-08-18T22:18:12.743Z,11.37
2018-08-18T22:20:39.848Z,12.10
2018-08-18T22:23:07.321Z,15.63
2018-08-18T22:25:34.521Z,11.80
2018-08-18T22:28:01.638Z,17.07
2018-08-18T22:30:28.780Z,12.17
2018-08-18T22:32:55.900Z,13.33
2018-08-18T22:35:23.025Z,12.97
2018-08-18T22:37:50.134Z,12.17
2018-08-18T22:40:17.267Z,14.30
2018-08-18T22:42:44.401Z,12.70
2018-08-18T22:45:24.923Z,13.40
2018-08-18T22:47:52.037Z,14.53
2018-08-18T22:50:19.144Z,12.70
2018-08-18T22:52:48.568Z,12.50
2018-08-18T22:55:16.045Z,13.13
2018-08-18T22:58:14.057Z,12.90
2018-08-18T23:00:43.330Z,12.03
2018-08-18T23:03:10.515Z,15.57
2018-08-18T23:05:37.630Z,14.13
2018-08-18T23:08:04.775Z,14.90
2018-08-18T23:10:31.996Z,18.93
2018-08-18T23:12:59.963Z,15.73
2018-08-18T23:15:27.076Z,17.47
2018-08-18T23:17:54.180Z,31.03
2018-08-18T23:20:21.312Z,29.63
2018-08-18T23:22:53.700Z,30.97
2018-08-18T23:25:21.775Z,26.60
2018-08-18T23:27:48.932Z,28.17
2018-08-18T23:30:19.179Z,24.37
2018-08-18T23:32:46.329Z,18.70
2018-08-18T23:35:13.446Z,17.43
2018-08-18T23:37:40.613Z,14.27
2018-08-18T23:40:07.721Z,16.60
2018-08-18T23:42:34.847Z,18.13
2018-08-18T23:45:01.992Z,15.03
2018-08-18T23:47:29.117Z,14.03
2018-08-18T23:49:56.243Z,12.77
2018-08-18T23:52:23.368Z,11.03
2018-08-18T23:54:50.496Z,15.37
2018-08-18T23:57:18.106Z,13.73
2018-08-18T23:59:45.769Z,13.97
